sensor_id;sensor_type;location;lat;lon;timestamp;temperature;humidity
76936;DHT22;65881;52.438;16.744;2023-11-21T00:00:14;5.00;99.90
76936;DHT22;65881;52.438;16.744;2023-11-21T00:02:40;5.10;99.90
76936;DHT22;65881;52.438;16.744;2023-11-21T00:05:15;5.10;99.90
76936;DHT22;65881;52.438;16.744;2023-11-21T00:07:42;5.10;99.90
76936;DHT22;65881;52.438;16.744;2023-11-21T00:10:09;5.10;99.90
76936;DHT22;65881;52.438;16.744;2023-11-21T00:12:36;5.10;99.90
76936;DHT22;65881;52.438;16.744;2023-11-21T00:15:02;5.10;99.90
76936;DHT22;65881;52.438;16.744;2023-11-21T00:17:28;5.00;99.90
76936;DHT22;65881;52.438;16.744;2023-11-21T00:19:53;5.00;99.90
76936;DHT22;65881;52.438;16.744;2023-11-21T00:22:19;5.00;99.90
76936;DHT22;65881;52.438;16.744;2023-11-21T00:24:45;5.00;99.90
76936;DHT22;65881;52.438;16.744;2023-11-21T00:27:11;5.00;99.90
76936;DHT22;65881;52.438;16.744;2023-11-21T00:29:37;5.00;99.90
76936;DHT22;65881;52.438;16.744;2023-11-21T00:32:04;5.00;99.90
76936;DHT22;65881;52.438;16.744;2023-11-21T00:34:31;4.90;99.90
76936;DHT22;65881;52.438;16.744;2023-11-21T00:36:56;4.90;99.90
76936;DHT22;65881;52.438;16.744;2023-11-21T00:39:22;4.90;99.90
76936;DHT22;65881;52.438;16.744;2023-11-21T00:41:48;4.90;99.90
76936;DHT22;65881;52.438;16.744;2023-11-21T00:44:13;4.90;99.90
76936;DHT22;65881;52.438;16.744;2023-11-21T00:46:39;4.80;99.90
76936;DHT22;65881;52.438;16.744;2023-11-21T00:49:05;4.70;99.90
76936;DHT22;65881;52.438;16.744;2023-11-21T00:51:31;4.70;99.90
76936;DHT22;65881;52.438;16.744;2023-11-21T00:53:57;4.70;99.90
76936;DHT22;65881;52.438;16.744;2023-11-21T00:56:23;4.60;99.90
76936;DHT22;65881;52.438;16.744;2023-11-21T00:58:49;4.50;99.90
76936;DHT22;65881;52.438;16.744;2023-11-21T01:01:20;4.50;99.90
76936;DHT22;65881;52.438;16.744;2023-11-21T01:03:48;4.50;99.90
76936;DHT22;65881;52.438;16.744;2023-11-21T01:06:15;4.50;99.90
76936;DHT22;65881;52.438;16.744;2023-11-21T01:08:40;4.40;99.90
76936;DHT22;65881;52.438;16.744;2023-11-21T01:11:06;4.40;99.90
76936;DHT22;65881;52.438;16.744;2023-11-21T01:13:34;4.30;99.90
76936;DHT22;65881;52.438;16.744;2023-11-21T01:16:00;4.30;99.90
76936;DHT22;65881;52.438;16.744;2023-11-21T01:18:26;4.20;99.90
76936;DHT22;65881;52.438;16.744;2023-11-21T01:20:52;4.20;99.90
76936;DHT22;65881;52.438;16.744;2023-11-21T01:23:19;4.10;99.90
76936;DHT22;65881;52.438;16.744;2023-11-21T01:25:45;4.10;99.90
76936;DHT22;65881;52.438;16.744;2023-11-21T01:28:10;4.10;99.90
76936;DHT22;65881;52.438;16.744;2023-11-21T01:30:36;4.10;99.90
76936;DHT22;65881;52.438;16.744;2023-11-21T01:33:02;4.10;99.90
76936;DHT22;65881;52.438;16.744;2023-11-21T01:35:28;4.10;99.90
76936;DHT22;65881;52.438;16.744;2023-11-21T01:37:54;4.10;99.90
76936;DHT22;65881;52.438;16.744;2023-11-21T01:40:19;4.10;99.90
76936;DHT22;65881;52.438;16.744;2023-11-21T01:42:46;4.10;99.90
76936;DHT22;65881;52.438;16.744;2023-11-21T01:45:13;4.10;99.90
76936;DHT22;65881;52.438;16.744;2023-11-21T01:47:40;4.00;99.90
76936;DHT22;65881;52.438;16.744;2023-11-21T01:50:07;4.10;99.90
76936;DHT22;65881;52.438;16.744;2023-11-21T01:52:35;4.00;99.90
76936;DHT22;65881;52.438;16.744;2023-11-21T01:55:01;4.00;99.90
76936;DHT22;65881;52.438;16.744;2023-11-21T01:57:28;3.90;99.90
76936;DHT22;65881;52.438;16.744;2023-11-21T01:59:54;3.90;99.90
76936;DHT22;65881;52.438;16.744;2023-11-21T02:02:23;3.90;99.90
76936;DHT22;65881;52.438;16.744;2023-11-21T02:04:49;3.80;99.90
76936;DHT22;65881;52.438;16.744;2023-11-21T02:07:15;3.70;99.90
76936;DHT22;65881;52.438;16.744;2023-11-21T02:09:40;3.70;99.90
76936;DHT22;65881;52.438;16.744;2023-11-21T02:12:08;3.60;99.90
76936;DHT22;65881;52.438;16.744;2023-11-21T02:14:37;3.50;99.90
76936;DHT22;65881;52.438;16.744;2023-11-21T02:17:03;3.50;99.90
76936;DHT22;65881;52.438;16.744;2023-11-21T02:19:29;3.50;99.90
76936;DHT22;65881;52.438;16.744;2023-11-21T02:21:56;3.50;99.90
76936;DHT22;65881;52.438;16.744;2023-11-21T02:24:26;3.50;99.90
76936;DHT22;65881;52.438;16.744;2023-11-21T02:26:52;3.50;99.90
76936;DHT22;65881;52.438;16.744;2023-11-21T02:29:19;3.50;99.90
76936;DHT22;65881;52.438;16.744;2023-11-21T02:31:48;3.50;99.90
76936;DHT22;65881;52.438;16.744;2023-11-21T02:34:15;3.50;99.90
76936;DHT22;65881;52.438;16.744;2023-11-21T02:36:41;3.50;99.90
76936;DHT22;65881;52.438;16.744;2023-11-21T02:39:08;3.50;99.90
76936;DHT22;65881;52.438;16.744;2023-11-21T02:41:33;3.50;99.90
76936;DHT22;65881;52.438;16.744;2023-11-21T02:44:00;3.50;99.90
76936;DHT22;65881;52.438;16.744;2023-11-21T02:46:26;3.50;99.90
76936;DHT22;65881;52.438;16.744;2023-11-21T02:48:52;3.40;99.90
76936;DHT22;65881;52.438;16.744;2023-11-21T02:51:20;3.40;99.90
76936;DHT22;65881;52.438;16.744;2023-11-21T02:53:45;3.30;99.90
76936;DHT22;65881;52.438;16.744;2023-11-21T02:56:12;3.30;99.90
76936;DHT22;65881;52.438;16.744;2023-11-21T02:58:41;3.20;99.90
76936;DHT22;65881;52.438;16.744;2023-11-21T03:01:07;3.20;99.90
76936;DHT22;65881;52.438;16.744;2023-11-21T03:03:32;3.20;99.90
76936;DHT22;65881;52.438;16.744;2023-11-21T03:05:58;3.10;99.90
76936;DHT22;65881;52.438;16.744;2023-11-21T03:08:23;3.10;99.90
76936;DHT22;65881;52.438;16.744;2023-11-21T03:10:49;3.00;99.90
76936;DHT22;65881;52.438;16.744;2023-11-21T03:13:15;3.00;99.90
76936;DHT22;65881;52.438;16.744;2023-11-21T03:15:40;3.00;99.90
76936;DHT22;65881;52.438;16.744;2023-11-21T03:18:08;3.00;99.90
76936;DHT22;65881;52.438;16.744;2023-11-21T03:20:33;2.90;99.90
76936;DHT22;65881;52.438;16.744;2023-11-21T03:23:00;2.80;99.90
76936;DHT22;65881;52.438;16.744;2023-11-21T03:25:25;2.80;99.90
76936;DHT22;65881;52.438;16.744;2023-11-21T03:27:51;2.80;99.90
76936;DHT22;65881;52.438;16.744;2023-11-21T03:30:17;2.80;99.90
76936;DHT22;65881;52.438;16.744;2023-11-21T03:32:43;2.70;99.90
76936;DHT22;65881;52.438;16.744;2023-11-21T03:35:08;2.60;99.90
76936;DHT22;65881;52.438;16.744;2023-11-21T03:37:34;2.50;99.90
76936;DHT22;65881;52.438;16.744;2023-11-21T03:40:00;2.50;99.90
76936;DHT22;65881;52.438;16.744;2023-11-21T03:42:25;2.50;99.90
76936;DHT22;65881;52.438;16.744;2023-11-21T03:44:52;2.50;99.90
76936;DHT22;65881;52.438;16.744;2023-11-21T03:47:17;2.50;99.90
76936;DHT22;65881;52.438;16.744;2023-11-21T03:49:44;2.40;99.90
76936;DHT22;65881;52.438;16.744;2023-11-21T03:52:11;2.40;99.90
76936;DHT22;65881;52.438;16.744;2023-11-21T03:54:37;2.30;99.90
76936;DHT22;65881;52.438;16.744;2023-11-21T03:57:03;2.30;99.90
76936;DHT22;65881;52.438;16.744;2023-11-21T03:59:29;2.20;99.90
76936;DHT22;65881;52.438;16.744;2023-11-21T04:01:57;2.20;99.90
76936;DHT22;65881;52.438;16.744;2023-11-21T04:04:23;2.20;99.90
76936;DHT22;65881;52.438;16.744;2023-11-21T04:06:49;2.20;99.90
76936;DHT22;65881;52.438;16.744;2023-11-21T04:09:14;2.10;99.90
76936;DHT22;65881;52.438;16.744;2023-11-21T04:11:40;2.10;99.90
76936;DHT22;65881;52.438;16.744;2023-11-21T04:14:06;2.10;99.90
76936;DHT22;65881;52.438;16.744;2023-11-21T04:16:31;2.10;99.90
76936;DHT22;65881;52.438;16.744;2023-11-21T04:18:57;2.10;99.90
76936;DHT22;65881;52.438;16.744;2023-11-21T04:21:23;2.10;99.90
76936;DHT22;65881;52.438;16.744;2023-11-21T04:23:49;2.00;99.90
76936;DHT22;65881;52.438;16.744;2023-11-21T04:26:15;2.00;99.90
76936;DHT22;65881;52.438;16.744;2023-11-21T04:28:41;1.90;99.90
76936;DHT22;65881;52.438;16.744;2023-11-21T04:31:07;2.00;99.90
76936;DHT22;65881;52.438;16.744;2023-11-21T04:33:33;1.90;99.90
76936;DHT22;65881;52.438;16.744;2023-11-21T04:35:58;1.80;99.90
76936;DHT22;65881;52.438;16.744;2023-11-21T04:38:24;1.80;99.90
76936;DHT22;65881;52.438;16.744;2023-11-21T04:40:49;1.80;99.90
76936;DHT22;65881;52.438;16.744;2023-11-21T04:43:15;1.70;99.90
76936;DHT22;65881;52.438;16.744;2023-11-21T04:45:41;1.70;99.90
76936;DHT22;65881;52.438;16.744;2023-11-21T04:48:07;1.60;99.90
76936;DHT22;65881;52.438;16.744;2023-11-21T04:50:34;1.50;99.90
76936;DHT22;65881;52.438;16.744;2023-11-21T04:52:59;1.50;99.90
76936;DHT22;65881;52.438;16.744;2023-11-21T04:55:25;1.50;99.90
76936;DHT22;65881;52.438;16.744;2023-11-21T04:57:54;1.50;99.90
76936;DHT22;65881;52.438;16.744;2023-11-21T05:00:20;1.50;99.90
76936;DHT22;65881;52.438;16.744;2023-11-21T05:02:46;1.50;99.90
76936;DHT22;65881;52.438;16.744;2023-11-21T05:05:12;1.40;99.90
76936;DHT22;65881;52.438;16.744;2023-11-21T05:07:41;1.40;99.90
76936;DHT22;65881;52.438;16.744;2023-11-21T05:10:08;1.40;99.90
76936;DHT22;65881;52.438;16.744;2023-11-21T05:12:37;1.40;99.90
76936;DHT22;65881;52.438;16.744;2023-11-21T05:15:06;1.40;99.90
76936;DHT22;65881;52.438;16.744;2023-11-21T05:17:36;1.40;99.90
76936;DHT22;65881;52.438;16.744;2023-11-21T05:20:03;1.40;99.90
76936;DHT22;65881;52.438;16.744;2023-11-21T05:22:30;1.40;99.90
76936;DHT22;65881;52.438;16.744;2023-11-21T05:24:55;1.40;99.90
76936;DHT22;65881;52.438;16.744;2023-11-21T05:27:21;1.40;99.90
76936;DHT22;65881;52.438;16.744;2023-11-21T05:29:47;1.30;99.90
76936;DHT22;65881;52.438;16.744;2023-11-21T05:32:12;1.40;99.90
76936;DHT22;65881;52.438;16.744;2023-11-21T05:34:38;1.40;99.90
76936;DHT22;65881;52.438;16.744;2023-11-21T05:37:04;1.30;99.90
76936;DHT22;65881;52.438;16.744;2023-11-21T05:39:30;1.40;99.90
76936;DHT22;65881;52.438;16.744;2023-11-21T05:41:57;1.40;99.90
76936;DHT22;65881;52.438;16.744;2023-11-21T05:44:23;1.40;99.90
76936;DHT22;65881;52.438;16.744;2023-11-21T05:46:49;1.40;99.90
76936;DHT22;65881;52.438;16.744;2023-11-21T05:49:15;1.20;99.90
76936;DHT22;65881;52.438;16.744;2023-11-21T05:51:41;1.20;99.90
76936;DHT22;65881;52.438;16.744;2023-11-21T05:54:07;1.20;99.90
76936;DHT22;65881;52.438;16.744;2023-11-21T05:56:33;1.20;99.90
76936;DHT22;65881;52.438;16.744;2023-11-21T05:58:59;1.20;99.90
76936;DHT22;65881;52.438;16.744;2023-11-21T06:01:25;1.10;99.90
76936;DHT22;65881;52.438;16.744;2023-11-21T06:03:54;1.10;99.90
76936;DHT22;65881;52.438;16.744;2023-11-21T06:06:20;1.20;99.90
76936;DHT22;65881;52.438;16.744;2023-11-21T06:08:48;1.20;99.90
76936;DHT22;65881;52.438;16.744;2023-11-21T06:11:14;1.10;99.90
76936;DHT22;65881;52.438;16.744;2023-11-21T06:13:40;1.10;99.90
76936;DHT22;65881;52.438;16.744;2023-11-21T06:16:06;1.10;99.90
76936;DHT22;65881;52.438;16.744;2023-11-21T06:18:31;1.10;99.90
76936;DHT22;65881;52.438;16.744;2023-11-21T06:20:57;1.00;99.90
76936;DHT22;65881;52.438;16.744;2023-11-21T06:23:24;1.00;99.90
76936;DHT22;65881;52.438;16.744;2023-11-21T06:25:49;1.00;99.90
76936;DHT22;65881;52.438;16.744;2023-11-21T06:28:15;1.00;99.90
76936;DHT22;65881;52.438;16.744;2023-11-21T06:30:43;0.90;99.90
76936;DHT22;65881;52.438;16.744;2023-11-21T06:33:10;0.90;99.90
76936;DHT22;65881;52.438;16.744;2023-11-21T06:35:36;1.00;99.90
76936;DHT22;65881;52.438;16.744;2023-11-21T06:38:02;0.80;99.90
76936;DHT22;65881;52.438;16.744;2023-11-21T06:40:28;0.80;99.90
76936;DHT22;65881;52.438;16.744;2023-11-21T06:42:54;0.80;99.90
76936;DHT22;65881;52.438;16.744;2023-11-21T06:45:19;0.80;99.90
76936;DHT22;65881;52.438;16.744;2023-11-21T06:47:45;0.70;99.90
76936;DHT22;65881;52.438;16.744;2023-11-21T06:50:11;0.70;99.90
76936;DHT22;65881;52.438;16.744;2023-11-21T06:52:37;0.80;99.90
76936;DHT22;65881;52.438;16.744;2023-11-21T06:55:03;0.80;99.90
76936;DHT22;65881;52.438;16.744;2023-11-21T06:57:28;0.80;99.90
76936;DHT22;65881;52.438;16.744;2023-11-21T06:59:54;0.90;99.90
76936;DHT22;65881;52.438;16.744;2023-11-21T07:02:20;0.90;99.90
76936;DHT22;65881;52.438;16.744;2023-11-21T07:04:46;0.90;99.90
76936;DHT22;65881;52.438;16.744;2023-11-21T07:07:12;1.00;99.90
76936;DHT22;65881;52.438;16.744;2023-11-21T07:09:38;1.00;99.90
76936;DHT22;65881;52.438;16.744;2023-11-21T07:12:04;0.90;99.90
76936;DHT22;65881;52.438;16.744;2023-11-21T07:14:35;0.80;99.90
76936;DHT22;65881;52.438;16.744;2023-11-21T07:17:02;0.80;99.90
76936;DHT22;65881;52.438;16.744;2023-11-21T07:19:28;0.70;99.90
76936;DHT22;65881;52.438;16.744;2023-11-21T07:21:54;0.80;99.90
76936;DHT22;65881;52.438;16.744;2023-11-21T07:24:21;0.80;99.90
76936;DHT22;65881;52.438;16.744;2023-11-21T07:26:48;0.70;99.90
76936;DHT22;65881;52.438;16.744;2023-11-21T07:29:13;0.80;99.90
76936;DHT22;65881;52.438;16.744;2023-11-21T07:31:39;0.80;99.90
76936;DHT22;65881;52.438;16.744;2023-11-21T07:34:06;0.70;99.90
76936;DHT22;65881;52.438;16.744;2023-11-21T07:36:33;0.60;99.90
76936;DHT22;65881;52.438;16.744;2023-11-21T07:38:59;0.70;99.90
76936;DHT22;65881;52.438;16.744;2023-11-21T07:41:25;0.60;99.90
76936;DHT22;65881;52.438;16.744;2023-11-21T07:43:51;0.60;99.90
76936;DHT22;65881;52.438;16.744;2023-11-21T07:46:17;0.60;99.90
76936;DHT22;65881;52.438;16.744;2023-11-21T07:48:43;0.60;99.90
76936;DHT22;65881;52.438;16.744;2023-11-21T07:51:10;0.60;99.90
76936;DHT22;65881;52.438;16.744;2023-11-21T07:53:36;0.60;99.90
76936;DHT22;65881;52.438;16.744;2023-11-21T07:56:08;0.60;99.90
76936;DHT22;65881;52.438;16.744;2023-11-21T07:58:35;0.60;99.90
76936;DHT22;65881;52.438;16.744;2023-11-21T08:01:02;0.60;99.90
76936;DHT22;65881;52.438;16.744;2023-11-21T08:03:27;0.60;99.90
76936;DHT22;65881;52.438;16.744;2023-11-21T08:05:58;0.60;99.90
76936;DHT22;65881;52.438;16.744;2023-11-21T08:08:24;0.50;99.90
76936;DHT22;65881;52.438;16.744;2023-11-21T08:10:51;0.50;99.90
76936;DHT22;65881;52.438;16.744;2023-11-21T08:13:23;0.50;99.90
76936;DHT22;65881;52.438;16.744;2023-11-21T08:15:49;0.50;99.90
76936;DHT22;65881;52.438;16.744;2023-11-21T08:18:15;0.40;99.90
76936;DHT22;65881;52.438;16.744;2023-11-21T08:20:41;0.40;99.90
76936;DHT22;65881;52.438;16.744;2023-11-21T08:23:07;0.40;99.90
76936;DHT22;65881;52.438;16.744;2023-11-21T08:25:33;0.40;99.90
76936;DHT22;65881;52.438;16.744;2023-11-21T08:28:00;0.40;99.90
76936;DHT22;65881;52.438;16.744;2023-11-21T08:30:27;0.30;99.90
76936;DHT22;65881;52.438;16.744;2023-11-21T08:32:55;0.30;99.90
76936;DHT22;65881;52.438;16.744;2023-11-21T08:35:24;0.40;99.90
76936;DHT22;65881;52.438;16.744;2023-11-21T08:37:51;0.40;99.90
76936;DHT22;65881;52.438;16.744;2023-11-21T08:40:18;0.30;99.90
76936;DHT22;65881;52.438;16.744;2023-11-21T08:42:45;0.30;99.90
76936;DHT22;65881;52.438;16.744;2023-11-21T08:45:11;0.30;99.90
76936;DHT22;65881;52.438;16.744;2023-11-21T08:47:38;0.20;99.90
76936;DHT22;65881;52.438;16.744;2023-11-21T08:50:05;0.30;99.90
76936;DHT22;65881;52.438;16.744;2023-11-21T08:52:33;0.20;99.90
76936;DHT22;65881;52.438;16.744;2023-11-21T08:54:59;0.30;99.90
76936;DHT22;65881;52.438;16.744;2023-11-21T08:57:29;0.20;99.90
76936;DHT22;65881;52.438;16.744;2023-11-21T08:59:55;0.30;99.90
76936;DHT22;65881;52.438;16.744;2023-11-21T09:02:26;0.30;99.90
76936;DHT22;65881;52.438;16.744;2023-11-21T09:04:52;0.30;99.90
76936;DHT22;65881;52.438;16.744;2023-11-21T09:07:18;0.20;99.90
76936;DHT22;65881;52.438;16.744;2023-11-21T09:09:46;0.20;99.90
76936;DHT22;65881;52.438;16.744;2023-11-21T09:12:12;0.20;99.90
76936;DHT22;65881;52.438;16.744;2023-11-21T09:14:38;0.20;99.90
76936;DHT22;65881;52.438;16.744;2023-11-21T09:17:05;0.10;99.90
76936;DHT22;65881;52.438;16.744;2023-11-21T09:19:36;0.00;99.90
76936;DHT22;65881;52.438;16.744;2023-11-21T09:22:02;0.00;99.90
76936;DHT22;65881;52.438;16.744;2023-11-21T09:24:28;0.00;99.90
76936;DHT22;65881;52.438;16.744;2023-11-21T09:26:53;0.00;99.90
76936;DHT22;65881;52.438;16.744;2023-11-21T09:29:19;0.00;99.90
76936;DHT22;65881;52.438;16.744;2023-11-21T09:31:45;0.00;99.90
76936;DHT22;65881;52.438;16.744;2023-11-21T09:34:11;0.00;99.90
76936;DHT22;65881;52.438;16.744;2023-11-21T09:36:37;0.00;99.90
76936;DHT22;65881;52.438;16.744;2023-11-21T09:39:05;0.00;99.90
76936;DHT22;65881;52.438;16.744;2023-11-21T09:44:43;0.00;99.90
76936;DHT22;65881;52.438;16.744;2023-11-21T09:47:10;0.00;99.90
76936;DHT22;65881;52.438;16.744;2023-11-21T09:49:39;0.00;99.90
76936;DHT22;65881;52.438;16.744;2023-11-21T09:52:07;0.00;99.90
76936;DHT22;65881;52.438;16.744;2023-11-21T09:54:35;0.00;99.90
76936;DHT22;65881;52.438;16.744;2023-11-21T09:57:02;0.00;99.90
76936;DHT22;65881;52.438;16.744;2023-11-21T09:59:30;0.00;99.90
76936;DHT22;65881;52.438;16.744;2023-11-21T10:02:03;0.00;99.90
76936;DHT22;65881;52.438;16.744;2023-11-21T10:04:29;0.00;99.90
76936;DHT22;65881;52.438;16.744;2023-11-21T10:06:54;0.00;99.90
76936;DHT22;65881;52.438;16.744;2023-11-21T10:09:21;0.00;99.90
76936;DHT22;65881;52.438;16.744;2023-11-21T10:11:49;0.10;99.90
76936;DHT22;65881;52.438;16.744;2023-11-21T10:14:18;0.20;99.90
76936;DHT22;65881;52.438;16.744;2023-11-21T10:16:48;0.20;99.90
76936;DHT22;65881;52.438;16.744;2023-11-21T10:19:14;0.10;99.90
76936;DHT22;65881;52.438;16.744;2023-11-21T10:21:41;-0.10;99.90
76936;DHT22;65881;52.438;16.744;2023-11-21T10:24:07;0.00;99.90
76936;DHT22;65881;52.438;16.744;2023-11-21T10:26:33;-0.10;99.90
76936;DHT22;65881;52.438;16.744;2023-11-21T10:29:00;-0.10;99.90
76936;DHT22;65881;52.438;16.744;2023-11-21T10:31:33;0.00;99.90
76936;DHT22;65881;52.438;16.744;2023-11-21T10:34:15;-0.10;99.90
76936;DHT22;65881;52.438;16.744;2023-11-21T10:36:42;-0.10;99.90
76936;DHT22;65881;52.438;16.744;2023-11-21T10:39:08;-0.10;99.90
76936;DHT22;65881;52.438;16.744;2023-11-21T10:41:35;-0.10;99.90
76936;DHT22;65881;52.438;16.744;2023-11-21T10:44:01;-0.20;99.90
76936;DHT22;65881;52.438;16.744;2023-11-21T10:46:31;-0.20;99.90
76936;DHT22;65881;52.438;16.744;2023-11-21T10:48:57;-0.20;99.90
76936;DHT22;65881;52.438;16.744;2023-11-21T10:51:23;-0.10;99.90
76936;DHT22;65881;52.438;16.744;2023-11-21T10:53:52;-0.10;99.90
76936;DHT22;65881;52.438;16.744;2023-11-21T10:56:19;-0.10;99.90
76936;DHT22;65881;52.438;16.744;2023-11-21T10:58:49;-0.10;99.90
76936;DHT22;65881;52.438;16.744;2023-11-21T11:01:17;-0.10;99.90
76936;DHT22;65881;52.438;16.744;2023-11-21T11:03:44;-0.10;99.90
76936;DHT22;65881;52.438;16.744;2023-11-21T11:06:10;-0.10;99.90
76936;DHT22;65881;52.438;16.744;2023-11-21T11:08:38;0.00;99.90
76936;DHT22;65881;52.438;16.744;2023-11-21T11:11:05;0.00;99.90
76936;DHT22;65881;52.438;16.744;2023-11-21T11:13:31;0.00;99.90
76936;DHT22;65881;52.438;16.744;2023-11-21T11:16:01;0.00;99.90
76936;DHT22;65881;52.438;16.744;2023-11-21T11:18:28;-0.10;99.90
76936;DHT22;65881;52.438;16.744;2023-11-21T11:24:18;-0.10;99.90
76936;DHT22;65881;52.438;16.744;2023-11-21T11:27:01;-0.10;99.90
76936;DHT22;65881;52.438;16.744;2023-11-21T11:35:23;-0.20;99.90
76936;DHT22;65881;52.438;16.744;2023-11-21T11:37:50;-0.20;99.90
76936;DHT22;65881;52.438;16.744;2023-11-21T11:40:16;-0.30;99.90
76936;DHT22;65881;52.438;16.744;2023-11-21T11:42:58;-0.40;99.90
76936;DHT22;65881;52.438;16.744;2023-11-21T11:45:34;-0.40;99.90
76936;DHT22;65881;52.438;16.744;2023-11-21T11:48:01;-0.50;99.90
76936;DHT22;65881;52.438;16.744;2023-11-21T11:50:28;-0.40;99.90
76936;DHT22;65881;52.438;16.744;2023-11-21T11:52:54;-0.40;99.90
76936;DHT22;65881;52.438;16.744;2023-11-21T11:55:23;-0.40;99.90
76936;DHT22;65881;52.438;16.744;2023-11-21T11:57:53;-0.30;99.90
76936;DHT22;65881;52.438;16.744;2023-11-21T12:02:55;-0.20;99.90
76936;DHT22;65881;52.438;16.744;2023-11-21T12:05:22;-0.30;99.90
76936;DHT22;65881;52.438;16.744;2023-11-21T12:07:52;-0.30;99.90
76936;DHT22;65881;52.438;16.744;2023-11-21T12:10:29;-0.30;99.90
76936;DHT22;65881;52.438;16.744;2023-11-21T12:13:03;-0.30;99.90
76936;DHT22;65881;52.438;16.744;2023-11-21T12:15:30;-0.40;99.90
76936;DHT22;65881;52.438;16.744;2023-11-21T12:17:57;-0.40;99.90
76936;DHT22;65881;52.438;16.744;2023-11-21T12:20:25;-0.40;99.90
76936;DHT22;65881;52.438;16.744;2023-11-21T12:25:26;-0.30;99.90
76936;DHT22;65881;52.438;16.744;2023-11-21T12:27:58;-0.30;99.90
76936;DHT22;65881;52.438;16.744;2023-11-21T12:30:28;-0.40;99.90
76936;DHT22;65881;52.438;16.744;2023-11-21T12:32:57;-0.40;99.90
76936;DHT22;65881;52.438;16.744;2023-11-21T12:35:28;-0.40;99.90
76936;DHT22;65881;52.438;16.744;2023-11-21T12:37:55;-0.50;99.90
76936;DHT22;65881;52.438;16.744;2023-11-21T12:40:23;-0.50;99.90
76936;DHT22;65881;52.438;16.744;2023-11-21T12:42:51;-0.50;99.90
76936;DHT22;65881;52.438;16.744;2023-11-21T12:47:47;-0.50;99.90
76936;DHT22;65881;52.438;16.744;2023-11-21T12:50:20;-0.50;99.90
76936;DHT22;65881;52.438;16.744;2023-11-21T12:52:52;-0.50;99.90
76936;DHT22;65881;52.438;16.744;2023-11-21T12:55:20;-0.40;99.90
76936;DHT22;65881;52.438;16.744;2023-11-21T12:57:51;-0.40;99.90
76936;DHT22;65881;52.438;16.744;2023-11-21T13:00:18;-0.50;99.90
76936;DHT22;65881;52.438;16.744;2023-11-21T13:02:58;-0.50;99.90
76936;DHT22;65881;52.438;16.744;2023-11-21T13:05:35;-0.50;99.90
76936;DHT22;65881;52.438;16.744;2023-11-21T13:08:04;-0.50;99.90
76936;DHT22;65881;52.438;16.744;2023-11-21T13:10:33;-0.50;99.90
76936;DHT22;65881;52.438;16.744;2023-11-21T13:13:02;-0.50;99.90
76936;DHT22;65881;52.438;16.744;2023-11-21T13:15:31;-0.40;99.90
76936;DHT22;65881;52.438;16.744;2023-11-21T13:17:58;-0.50;99.90
76936;DHT22;65881;52.438;16.744;2023-11-21T13:20:27;-0.50;99.90
76936;DHT22;65881;52.438;16.744;2023-11-21T13:22:56;-0.50;99.90
76936;DHT22;65881;52.438;16.744;2023-11-21T13:25:30;-0.50;99.90
76936;DHT22;65881;52.438;16.744;2023-11-21T13:27:59;-0.50;99.90
76936;DHT22;65881;52.438;16.744;2023-11-21T13:30:26;-0.40;99.90
76936;DHT22;65881;52.438;16.744;2023-11-21T13:32:53;-0.40;99.90
76936;DHT22;65881;52.438;16.744;2023-11-21T13:35:23;-0.50;99.90
76936;DHT22;65881;52.438;16.744;2023-11-21T13:37:57;-0.50;99.90
76936;DHT22;65881;52.438;16.744;2023-11-21T13:40:25;-0.50;99.90
76936;DHT22;65881;52.438;16.744;2023-11-21T13:42:53;-0.40;99.90
76936;DHT22;65881;52.438;16.744;2023-11-21T13:45:21;-0.40;99.90
76936;DHT22;65881;52.438;16.744;2023-11-21T13:47:49;-0.40;99.90
76936;DHT22;65881;52.438;16.744;2023-11-21T13:50:19;-0.40;99.90
76936;DHT22;65881;52.438;16.744;2023-11-21T13:52:49;-0.40;99.90
76936;DHT22;65881;52.438;16.744;2023-11-21T13:55:17;-0.40;99.90
76936;DHT22;65881;52.438;16.744;2023-11-21T13:57:43;-0.40;99.90
76936;DHT22;65881;52.438;16.744;2023-11-21T14:00:17;-0.30;99.90
76936;DHT22;65881;52.438;16.744;2023-11-21T14:03:02;-0.40;99.90
76936;DHT22;65881;52.438;16.744;2023-11-21T14:05:30;-0.40;99.90
76936;DHT22;65881;52.438;16.744;2023-11-21T14:07:57;-0.30;99.90
76936;DHT22;65881;52.438;16.744;2023-11-21T14:10:31;-0.30;99.90
76936;DHT22;65881;52.438;16.744;2023-11-21T14:13:08;-0.40;99.90
76936;DHT22;65881;52.438;16.744;2023-11-21T14:15:36;-0.40;99.90
76936;DHT22;65881;52.438;16.744;2023-11-21T14:18:08;-0.40;99.90
76936;DHT22;65881;52.438;16.744;2023-11-21T14:20:36;-0.40;99.90
76936;DHT22;65881;52.438;16.744;2023-11-21T14:23:03;-0.40;99.90
76936;DHT22;65881;52.438;16.744;2023-11-21T14:25:31;-0.40;99.90
76936;DHT22;65881;52.438;16.744;2023-11-21T14:27:57;-0.40;99.90
76936;DHT22;65881;52.438;16.744;2023-11-21T14:30:23;-0.40;99.90
76936;DHT22;65881;52.438;16.744;2023-11-21T14:32:49;-0.40;99.90
76936;DHT22;65881;52.438;16.744;2023-11-21T14:35:16;-0.40;99.90
76936;DHT22;65881;52.438;16.744;2023-11-21T14:37:43;-0.40;99.90
76936;DHT22;65881;52.438;16.744;2023-11-21T14:40:09;-0.40;99.90
76936;DHT22;65881;52.438;16.744;2023-11-21T14:42:35;-0.50;99.90
76936;DHT22;65881;52.438;16.744;2023-11-21T14:45:04;-0.50;99.90
76936;DHT22;65881;52.438;16.744;2023-11-21T14:47:33;-0.40;99.90
76936;DHT22;65881;52.438;16.744;2023-11-21T14:50:00;-0.40;99.90
76936;DHT22;65881;52.438;16.744;2023-11-21T14:52:42;-0.40;99.90
76936;DHT22;65881;52.438;16.744;2023-11-21T14:55:20;-0.40;99.90
76936;DHT22;65881;52.438;16.744;2023-11-21T14:57:53;-0.40;99.90
76936;DHT22;65881;52.438;16.744;2023-11-21T15:00:20;-0.40;99.90
76936;DHT22;65881;52.438;16.744;2023-11-21T15:03:01;-0.50;99.90
76936;DHT22;65881;52.438;16.744;2023-11-21T15:05:27;-0.40;99.90
76936;DHT22;65881;52.438;16.744;2023-11-21T15:07:54;-0.40;99.90
76936;DHT22;65881;52.438;16.744;2023-11-21T15:10:24;-0.40;99.90
76936;DHT22;65881;52.438;16.744;2023-11-21T15:13:10;-0.40;99.90
76936;DHT22;65881;52.438;16.744;2023-11-21T15:15:36;-0.40;99.90
76936;DHT22;65881;52.438;16.744;2023-11-21T15:18:03;-0.40;99.90
76936;DHT22;65881;52.438;16.744;2023-11-21T15:20:28;-0.40;99.90
76936;DHT22;65881;52.438;16.744;2023-11-21T15:22:56;-0.40;99.90
76936;DHT22;65881;52.438;16.744;2023-11-21T15:25:21;-0.40;99.90
76936;DHT22;65881;52.438;16.744;2023-11-21T15:27:47;-0.40;99.90
76936;DHT22;65881;52.438;16.744;2023-11-21T15:30:15;-0.40;99.90
76936;DHT22;65881;52.438;16.744;2023-11-21T15:32:45;-0.40;99.90
76936;DHT22;65881;52.438;16.744;2023-11-21T15:35:11;-0.40;99.90
76936;DHT22;65881;52.438;16.744;2023-11-21T15:37:40;-0.40;99.90
76936;DHT22;65881;52.438;16.744;2023-11-21T15:40:06;-0.50;99.90
76936;DHT22;65881;52.438;16.744;2023-11-21T15:42:34;-0.50;99.90
76936;DHT22;65881;52.438;16.744;2023-11-21T15:45:01;-0.50;99.90